createdAt,value
2022-10-14T00:00:06.831Z,36.20
2022-10-14T00:01:06.835Z,38.50
2022-10-14T00:02:06.798Z,37.00
2022-10-14T00:03:06.727Z,33.60
2022-10-14T00:04:06.730Z,34.40
2022-10-14T00:05:06.722Z,31.30
2022-10-14T00:06:06.709Z,34.90
2022-10-14T00:07:06.748Z,35.10
2022-10-14T00:08:06.667Z,35.50
2022-10-14T00:09:06.640Z,30.90
2022-10-14T00:10:06.672Z,32.40
2022-10-14T00:11:06.684Z,33.30
2022-10-14T00:12:06.630Z,33.60
2022-10-14T00:13:06.616Z,34.30
2022-10-14T00:14:06.660Z,34.80
2022-10-14T00:15:06.645Z,31.70
2022-10-14T00:16:06.604Z,35.00
2022-10-14T00:17:06.576Z,33.10
2022-10-14T00:18:06.565Z,31.30
2022-10-14T00:19:06.561Z,31.80
2022-10-14T00:20:06.598Z,31.00
2022-10-14T00:21:06.601Z,32.90
2022-10-14T00:22:06.537Z,30.00
2022-10-14T00:23:06.568Z,34.50
2022-10-14T00:24:06.497Z,32.40
2022-10-14T00:25:06.482Z,32.20
2022-10-14T00:26:06.504Z,32.50
2022-10-14T00:27:06.452Z,36.60
2022-10-14T00:28:06.466Z,34.70
2022-10-14T00:29:06.480Z,32.60
2022-10-14T00:30:06.568Z,38.30
2022-10-14T00:31:06.455Z,37.40
2022-10-14T00:32:06.405Z,31.00
2022-10-14T00:33:06.397Z,34.60
2022-10-14T00:34:06.389Z,36.10
2022-10-14T00:35:06.437Z,34.10
2022-10-14T00:36:06.384Z,32.80
2022-10-14T00:37:06.350Z,37.70
2022-10-14T00:38:06.333Z,37.40
2022-10-14T00:39:06.343Z,38.40
2022-10-14T00:40:06.340Z,40.40
2022-10-14T00:41:06.330Z,39.70
2022-10-14T00:42:06.342Z,40.30
2022-10-14T00:43:06.267Z,38.50
2022-10-14T00:44:06.275Z,41.90
2022-10-14T00:45:06.298Z,44.10
2022-10-14T00:46:06.322Z,43.30
2022-10-14T00:47:06.275Z,40.80
2022-10-14T00:48:06.213Z,44.10
2022-10-14T00:49:06.204Z,41.20
2022-10-14T00:50:06.228Z,44.60
2022-10-14T00:51:06.186Z,44.00
2022-10-14T00:52:06.182Z,43.10
2022-10-14T00:53:06.172Z,37.60
2022-10-14T00:54:06.154Z,42.80
2022-10-14T00:55:06.179Z,41.60
2022-10-14T00:56:06.143Z,42.00
2022-10-14T00:57:06.113Z,44.00
2022-10-14T00:58:06.125Z,40.30
2022-10-14T00:59:06.091Z,39.10
2022-10-14T01:00:06.097Z,39.10
2022-10-14T01:01:06.111Z,40.70
2022-10-14T01:02:06.056Z,39.90
2022-10-14T01:03:06.051Z,39.90
2022-10-14T01:04:06.037Z,37.30
2022-10-14T01:05:06.047Z,40.20
2022-10-14T01:06:06.011Z,38.90
2022-10-14T01:07:06.006Z,39.90
2022-10-14T01:08:05.978Z,39.70
2022-10-14T01:09:05.986Z,38.70
2022-10-14T01:10:05.986Z,37.20
2022-10-14T01:11:05.980Z,36.90
2022-10-14T01:12:27.446Z,39.00
2022-10-14T01:13:05.958Z,38.30
2022-10-14T01:14:05.919Z,37.30
2022-10-14T01:15:05.934Z,37.30
2022-10-14T01:16:05.898Z,35.50
2022-10-14T01:17:05.893Z,36.60
2022-10-14T01:18:05.892Z,35.40
2022-10-14T01:19:05.876Z,35.50
2022-10-14T01:20:05.877Z,37.00
2022-10-14T01:21:05.868Z,36.50
2022-10-14T01:22:05.845Z,36.60
2022-10-14T01:23:05.830Z,36.20
2022-10-14T01:24:05.814Z,35.50
2022-10-14T01:25:05.814Z,35.00
2022-10-14T01:26:05.780Z,34.50
2022-10-14T01:27:05.778Z,36.20
2022-10-14T01:28:05.767Z,36.30
2022-10-14T01:29:05.756Z,36.50
2022-10-14T01:30:05.761Z,35.00
2022-10-14T01:31:05.733Z,36.00
2022-10-14T01:32:05.713Z,35.80
2022-10-14T01:33:05.709Z,36.10
2022-10-14T01:34:05.692Z,36.80
2022-10-14T01:35:05.722Z,35.00
2022-10-14T01:36:05.668Z,35.80
2022-10-14T01:37:05.660Z,36.80
2022-10-14T01:38:05.651Z,37.10
2022-10-14T01:39:05.636Z,37.00
2022-10-14T01:40:05.648Z,34.80
2022-10-14T01:41:05.606Z,36.00
2022-10-14T01:42:05.603Z,36.10
2022-10-14T01:43:05.612Z,34.80
2022-10-14T01:44:05.582Z,35.70
2022-10-14T01:45:05.594Z,34.50
2022-10-14T01:46:05.559Z,35.80
2022-10-14T01:47:05.557Z,36.50
2022-10-14T01:48:05.536Z,34.90
2022-10-14T01:49:05.528Z,36.30
2022-10-14T01:50:05.537Z,36.00
2022-10-14T01:51:05.504Z,35.60
2022-10-14T01:52:05.477Z,33.10
2022-10-14T01:53:05.480Z,33.60
2022-10-14T01:54:05.473Z,35.60
2022-10-14T01:55:05.476Z,34.20
2022-10-14T01:56:05.465Z,35.30
2022-10-14T01:57:05.443Z,35.80
2022-10-14T01:58:05.428Z,33.80
2022-10-14T01:59:05.399Z,33.60
2022-10-14T02:00:05.433Z,34.50
2022-10-14T02:01:05.385Z,33.80
2022-10-14T02:02:05.473Z,34.90
2022-10-14T02:03:05.374Z,32.40
2022-10-14T02:04:05.358Z,37.40
2022-10-14T02:05:05.361Z,34.60
2022-10-14T02:06:05.361Z,34.70
2022-10-14T02:07:05.346Z,32.90
2022-10-14T02:08:05.314Z,35.50
2022-10-14T02:09:05.298Z,35.50
2022-10-14T02:10:05.308Z,35.50
2022-10-14T02:11:05.297Z,35.40
2022-10-14T02:12:05.278Z,33.80
2022-10-14T02:13:05.285Z,33.40
2022-10-14T02:14:05.248Z,36.40
2022-10-14T02:15:05.251Z,35.20
2022-10-14T02:16:05.225Z,38.00
2022-10-14T02:17:05.214Z,37.00
2022-10-14T02:18:05.199Z,38.40
2022-10-14T02:19:05.194Z,36.90
2022-10-14T02:20:05.225Z,37.40
2022-10-14T02:21:05.164Z,35.80
2022-10-14T02:22:05.157Z,36.00
2022-10-14T02:23:05.141Z,37.60
2022-10-14T02:24:05.136Z,36.50
2022-10-14T02:25:05.140Z,34.50
2022-10-14T02:26:05.117Z,36.00
2022-10-14T02:27:05.093Z,39.00
2022-10-14T02:28:05.090Z,40.30
2022-10-14T02:29:05.084Z,37.00
2022-10-14T02:30:05.112Z,37.00
2022-10-14T02:31:05.046Z,36.30
2022-10-14T02:32:05.046Z,38.10
2022-10-14T02:33:05.028Z,36.90
2022-10-14T02:34:05.034Z,41.90
2022-10-14T02:35:05.025Z,37.10
2022-10-14T02:36:04.997Z,37.10
2022-10-14T02:37:05.004Z,39.20
2022-10-14T02:38:04.990Z,39.20
2022-10-14T02:39:04.969Z,35.20
2022-10-14T02:40:05.007Z,36.90
2022-10-14T02:41:04.949Z,41.80
2022-10-14T02:42:04.926Z,40.00
2022-10-14T02:43:04.919Z,36.60
2022-10-14T02:44:04.901Z,36.40
2022-10-14T02:45:04.910Z,37.00
2022-10-14T02:46:04.910Z,39.00
2022-10-14T02:47:04.874Z,39.40
2022-10-14T02:48:04.868Z,37.60
2022-10-14T02:49:04.849Z,38.70
2022-10-14T02:50:04.857Z,38.60
2022-10-14T02:51:04.825Z,37.30
2022-10-14T02:52:04.815Z,35.40
2022-10-14T02:53:04.809Z,37.30
2022-10-14T02:54:04.793Z,35.00
2022-10-14T02:55:04.815Z,39.80
2022-10-14T02:56:04.765Z,37.50
2022-10-14T02:57:04.777Z,38.50
2022-10-14T02:58:04.752Z,36.00
2022-10-14T02:59:04.742Z,38.00
2022-10-14T03:00:04.754Z,35.30
2022-10-14T03:01:04.720Z,37.10
2022-10-14T03:02:04.753Z,37.60
2022-10-14T03:03:04.693Z,38.30
2022-10-14T03:04:04.680Z,42.30
2022-10-14T03:05:04.694Z,37.60
2022-10-14T03:06:04.659Z,37.90
2022-10-14T03:07:04.654Z,36.80
2022-10-14T03:08:04.658Z,44.20
2022-10-14T03:09:04.623Z,39.60
2022-10-14T03:10:04.707Z,40.70
2022-10-14T03:11:04.602Z,37.20
2022-10-14T03:12:04.588Z,36.60
2022-10-14T03:13:04.594Z,33.10
2022-10-14T03:14:04.572Z,35.10
2022-10-14T03:15:04.582Z,39.00
2022-10-14T03:16:04.577Z,39.40
2022-10-14T03:17:04.536Z,44.40
2022-10-14T03:18:04.524Z,44.30
2022-10-14T03:19:04.518Z,43.70
2022-10-14T03:20:04.519Z,36.40
2022-10-14T03:21:04.493Z,36.60
2022-10-14T03:22:04.480Z,41.00
2022-10-14T03:23:04.469Z,40.40
2022-10-14T03:24:04.450Z,40.00
2022-10-14T03:25:04.476Z,40.50
2022-10-14T03:26:04.441Z,42.40
2022-10-14T03:27:04.423Z,37.40
2022-10-14T03:28:04.405Z,43.70
2022-10-14T03:29:04.402Z,45.80
2022-10-14T03:30:04.405Z,45.40
2022-10-14T03:31:04.407Z,42.30
2022-10-14T03:32:04.381Z,41.00
2022-10-14T03:33:04.357Z,36.80
2022-10-14T03:34:04.338Z,36.10
2022-10-14T03:35:04.369Z,41.30
2022-10-14T03:36:04.320Z,40.10
2022-10-14T03:37:04.298Z,40.80
2022-10-14T03:38:04.293Z,40.70
2022-10-14T03:39:04.289Z,36.20
2022-10-14T03:40:04.300Z,38.80
2022-10-14T03:41:04.259Z,38.70
2022-10-14T03:42:04.249Z,37.10
2022-10-14T03:43:04.239Z,35.90
2022-10-14T03:44:04.242Z,35.00
2022-10-14T03:45:04.248Z,37.50
2022-10-14T03:46:04.222Z,38.00
2022-10-14T03:47:04.202Z,39.50
2022-10-14T03:48:04.179Z,39.80
2022-10-14T03:49:04.174Z,38.00
2022-10-14T03:50:04.207Z,43.20
2022-10-14T03:51:04.150Z,36.20
2022-10-14T03:52:04.151Z,39.70
2022-10-14T03:53:04.134Z,33.10
2022-10-14T03:54:04.111Z,35.80
2022-10-14T03:55:04.121Z,43.50
2022-10-14T03:56:04.088Z,40.80
2022-10-14T03:57:04.074Z,39.40
2022-10-14T03:58:04.079Z,38.90
2022-10-14T03:59:04.068Z,40.50
2022-10-14T04:00:04.074Z,39.70
2022-10-14T04:01:04.035Z,38.70
2022-10-14T04:02:04.067Z,37.30
2022-10-14T04:03:04.010Z,38.10
2022-10-14T04:04:04.006Z,34.80
2022-10-14T04:05:04.033Z,38.30
2022-10-14T04:06:03.996Z,38.70
2022-10-14T04:07:03.965Z,37.70
2022-10-14T04:08:03.959Z,38.50
2022-10-14T04:09:03.952Z,34.30
2022-10-14T04:10:03.965Z,37.40
2022-10-14T04:11:03.954Z,38.90
2022-10-14T04:12:03.908Z,36.30
2022-10-14T04:13:03.923Z,37.00
2022-10-14T04:14:03.889Z,38.50
2022-10-14T04:15:03.888Z,38.80
2022-10-14T04:16:03.893Z,35.40
2022-10-14T04:17:03.855Z,38.10
2022-10-14T04:18:03.850Z,36.30
2022-10-14T04:19:03.840Z,38.80
2022-10-14T04:20:03.826Z,39.50
2022-10-14T04:21:03.827Z,41.30
2022-10-14T04:22:03.813Z,42.10
2022-10-14T04:23:03.787Z,38.10
2022-10-14T04:24:08.249Z,38.20
2022-10-14T04:25:03.791Z,38.80
2022-10-14T04:26:03.785Z,35.80
2022-10-14T04:27:03.755Z,39.60
2022-10-14T04:28:03.734Z,37.00
2022-10-14T04:29:03.745Z,35.40
2022-10-14T04:30:03.718Z,35.20
2022-10-14T04:31:03.723Z,37.90
2022-10-14T04:32:03.703Z,37.20
2022-10-14T04:33:03.679Z,36.10
2022-10-14T04:34:03.675Z,37.10
2022-10-14T04:35:03.651Z,36.50
2022-10-14T04:36:03.692Z,37.50
2022-10-14T04:37:03.632Z,39.80
2022-10-14T04:38:03.627Z,38.20
2022-10-14T04:39:03.615Z,40.50
2022-10-14T04:40:03.603Z,36.50
2022-10-14T04:41:03.618Z,38.90
2022-10-14T04:42:03.582Z,39.60
2022-10-14T04:43:03.563Z,39.60
2022-10-14T04:44:03.564Z,38.80
2022-10-14T04:45:03.552Z,39.90
2022-10-14T04:46:03.559Z,40.00
2022-10-14T04:47:03.521Z,41.20
2022-10-14T04:48:03.510Z,41.20
2022-10-14T04:49:03.521Z,39.70
2022-10-14T04:50:03.480Z,49.40
2022-10-14T04:51:03.504Z,40.10
2022-10-14T04:52:03.484Z,37.60
2022-10-14T04:53:03.462Z,38.10
2022-10-14T04:54:03.445Z,39.50
2022-10-14T04:55:03.440Z,41.20
2022-10-14T04:56:03.437Z,41.30
2022-10-14T04:57:03.417Z,37.40
2022-10-14T04:58:03.395Z,41.80
2022-10-14T04:59:03.396Z,45.00
2022-10-14T05:00:03.385Z,45.70
2022-10-14T05:01:03.393Z,39.60
2022-10-14T05:02:03.410Z,38.00
2022-10-14T05:03:03.351Z,31.70
2022-10-14T05:04:03.330Z,38.60
2022-10-14T05:05:03.328Z,38.50
2022-10-14T05:06:03.330Z,38.50
2022-10-14T05:07:03.303Z,39.50
2022-10-14T05:08:03.283Z,39.70
2022-10-14T05:09:03.296Z,39.20
2022-10-14T05:10:03.261Z,39.00
2022-10-14T05:11:03.289Z,37.10
2022-10-14T05:12:03.240Z,36.60
2022-10-14T05:13:03.240Z,35.60
2022-10-14T05:14:03.218Z,42.30
2022-10-14T05:15:03.230Z,36.80
2022-10-14T05:16:03.219Z,39.30
2022-10-14T05:17:03.203Z,38.30
2022-10-14T05:18:03.176Z,33.40
2022-10-14T05:19:03.179Z,35.70
2022-10-14T05:20:03.156Z,41.90
2022-10-14T05:21:03.192Z,44.80
2022-10-14T05:22:03.127Z,42.10
2022-10-14T05:23:03.143Z,42.80
2022-10-14T05:24:03.129Z,43.00
2022-10-14T05:25:03.108Z,39.70
2022-10-14T05:26:03.112Z,41.20
2022-10-14T05:27:03.073Z,41.20
2022-10-14T05:28:03.068Z,47.20
2022-10-14T05:29:03.063Z,43.90
2022-10-14T05:30:03.046Z,38.90
2022-10-14T05:31:03.057Z,42.30
2022-10-14T05:32:03.016Z,42.30
2022-10-14T05:33:03.009Z,39.40
2022-10-14T05:34:03.013Z,44.60
2022-10-14T05:35:03.080Z,42.80
2022-10-14T05:36:02.989Z,41.10
2022-10-14T05:37:02.972Z,44.20
2022-10-14T05:38:04.371Z,37.20
2022-10-14T05:39:02.942Z,41.90
2022-10-14T05:40:02.934Z,43.00
2022-10-14T05:41:02.942Z,40.10
2022-10-14T05:42:02.913Z,43.70
2022-10-14T05:43:02.887Z,40.40
2022-10-14T05:44:02.888Z,47.00
2022-10-14T05:45:02.877Z,43.30
2022-10-14T05:46:02.881Z,41.80
2022-10-14T05:47:02.847Z,37.50
2022-10-14T05:48:02.839Z,39.10
2022-10-14T05:49:02.834Z,43.40
2022-10-14T05:50:02.822Z,40.60
2022-10-14T05:51:02.818Z,44.20
2022-10-14T05:52:02.818Z,44.60
2022-10-14T05:53:02.778Z,42.40
2022-10-14T05:54:02.778Z,42.00
2022-10-14T05:55:02.764Z,45.50
2022-10-14T05:56:02.764Z,36.60
2022-10-14T05:57:02.949Z,45.20
2022-10-14T05:58:02.722Z,46.40
2022-10-14T05:59:02.733Z,43.10
2022-10-14T06:00:02.713Z,41.60
2022-10-14T06:01:02.715Z,48.90
2022-10-14T06:02:02.680Z,45.00
2022-10-14T06:03:02.730Z,42.40
2022-10-14T06:04:02.651Z,49.30
2022-10-14T06:05:02.662Z,46.10
2022-10-14T06:06:02.799Z,39.30
2022-10-14T06:07:02.654Z,47.90
2022-10-14T06:08:02.620Z,42.30
2022-10-14T06:09:03.974Z,45.70
2022-10-14T06:10:02.590Z,49.70
2022-10-14T06:11:02.595Z,56.60
2022-10-14T06:12:02.566Z,49.10
2022-10-14T06:13:02.559Z,54.00
2022-10-14T06:14:02.567Z,54.80
2022-10-14T06:15:02.537Z,51.20
2022-10-14T06:16:02.562Z,57.10
2022-10-14T06:17:02.508Z,51.30
2022-10-14T06:18:02.507Z,53.60
2022-10-14T06:19:02.485Z,53.80
2022-10-14T06:20:02.481Z,49.30
2022-10-14T06:21:02.480Z,54.30
2022-10-14T06:22:02.463Z,46.30
2022-10-14T06:23:02.465Z,43.50
2022-10-14T06:24:02.435Z,46.80
2022-10-14T06:25:04.411Z,53.70
2022-10-14T06:26:02.455Z,53.10
2022-10-14T06:27:02.396Z,56.20
2022-10-14T06:28:02.398Z,52.90
2022-10-14T06:29:02.431Z,54.10
2022-10-14T06:30:02.377Z,54.50
2022-10-14T06:31:02.373Z,60.10
2022-10-14T06:32:02.422Z,63.30
2022-10-14T06:33:02.327Z,54.00
2022-10-14T06:34:02.316Z,52.10
2022-10-14T06:35:02.316Z,56.00
2022-10-14T06:36:02.321Z,56.40
2022-10-14T06:37:02.684Z,52.70
2022-10-14T06:38:02.258Z,61.20
2022-10-14T06:39:02.259Z,54.70
2022-10-14T06:40:02.253Z,54.90
2022-10-14T06:41:02.271Z,50.50
2022-10-14T06:42:02.218Z,58.60
2022-10-14T06:43:02.202Z,51.50
2022-10-14T06:44:02.304Z,53.70
2022-10-14T06:45:02.225Z,56.00
2022-10-14T06:46:02.203Z,57.70
2022-10-14T06:47:02.173Z,55.60
2022-10-14T06:48:02.162Z,57.40
2022-10-14T06:49:02.151Z,58.10
2022-10-14T06:50:02.139Z,55.70
2022-10-14T06:51:02.170Z,58.70
2022-10-14T06:52:02.120Z,54.30
2022-10-14T06:53:02.098Z,56.30
2022-10-14T06:54:02.096Z,59.20
2022-10-14T06:55:02.076Z,58.40
2022-10-14T06:56:02.102Z,55.90
2022-10-14T06:57:02.062Z,53.40
2022-10-14T06:58:02.113Z,51.40
2022-10-14T06:59:02.076Z,55.40
2022-10-14T07:00:02.036Z,53.20
2022-10-14T07:01:02.068Z,56.30
2022-10-14T07:02:02.097Z,49.00
2022-10-14T07:03:02.041Z,51.20
2022-10-14T07:04:01.996Z,52.30
2022-10-14T07:05:01.970Z,51.20
2022-10-14T07:06:02.003Z,52.80
2022-10-14T07:07:01.951Z,52.60
2022-10-14T07:08:01.984Z,51.40
2022-10-14T07:09:01.920Z,49.30
2022-10-14T07:10:01.914Z,49.00
2022-10-14T07:11:01.918Z,47.70
2022-10-14T07:12:01.910Z,50.10
2022-10-14T07:13:01.934Z,50.90
2022-10-14T07:14:01.871Z,51.80
2022-10-14T07:15:01.891Z,49.40
2022-10-14T07:16:01.860Z,49.30
2022-10-14T07:17:01.914Z,48.00
2022-10-14T07:18:01.819Z,52.00
2022-10-14T07:19:01.849Z,54.00
2022-10-14T07:20:01.799Z,53.50
2022-10-14T07:21:01.811Z,54.40
2022-10-14T07:22:01.779Z,52.80
2022-10-14T07:23:01.768Z,54.20
2022-10-14T07:24:01.751Z,53.70
2022-10-14T07:25:01.740Z,51.50
2022-10-14T07:26:01.770Z,54.10
2022-10-14T07:28:01.695Z,48.30
2022-10-14T07:29:01.737Z,49.90
2022-10-14T07:30:01.723Z,51.40
2022-10-14T07:31:01.718Z,50.30
2022-10-14T07:32:01.672Z,48.00
2022-10-14T07:33:01.646Z,49.30
2022-10-14T07:34:01.660Z,49.20
2022-10-14T07:35:01.643Z,49.20
2022-10-14T07:36:01.644Z,48.70
2022-10-14T07:37:01.600Z,48.60
2022-10-14T07:38:01.594Z,48.10
2022-10-14T07:39:01.571Z,49.40
2022-10-14T07:40:01.577Z,44.80
2022-10-14T07:41:01.585Z,44.70
2022-10-14T07:42:01.548Z,47.30
2022-10-14T07:43:01.534Z,48.70
2022-10-14T07:44:01.533Z,46.20
2022-10-14T07:45:01.512Z,48.20
2022-10-14T07:46:01.525Z,49.00
2022-10-14T07:47:01.491Z,49.30
2022-10-14T07:48:01.493Z,49.90
2022-10-14T07:49:01.487Z,47.20
2022-10-14T07:50:01.466Z,50.40
2022-10-14T07:51:01.477Z,49.10
2022-10-14T07:52:01.434Z,49.50
2022-10-14T07:53:01.758Z,46.80
2022-10-14T07:54:01.417Z,48.30
2022-10-14T07:55:01.401Z,48.40
2022-10-14T07:56:01.413Z,46.80
2022-10-14T07:57:01.413Z,49.80
2022-10-14T07:58:01.376Z,45.90
2022-10-14T07:59:01.380Z,46.30
2022-10-14T08:00:01.350Z,47.40
2022-10-14T08:01:01.353Z,45.00
2022-10-14T08:02:01.414Z,47.90
2022-10-14T08:03:01.326Z,45.30
2022-10-14T08:04:01.311Z,47.90
2022-10-14T08:05:25.687Z,45.90
2022-10-14T08:06:01.309Z,46.10
2022-10-14T08:07:01.288Z,45.10
2022-10-14T08:08:01.259Z,45.10
2022-10-14T08:09:01.260Z,44.40
2022-10-14T08:10:01.233Z,45.80
2022-10-14T08:11:01.248Z,43.60
2022-10-14T08:12:01.208Z,42.00
2022-10-14T08:13:01.497Z,42.40
2022-10-14T08:14:01.440Z,44.70
2022-10-14T08:15:01.923Z,43.20
2022-10-14T08:16:01.678Z,43.50
2022-10-14T08:17:01.398Z,43.00
2022-10-14T08:18:01.720Z,41.80
2022-10-14T08:19:01.926Z,42.00
2022-10-14T08:20:01.382Z,43.20
2022-10-14T08:21:01.705Z,42.40
2022-10-14T08:22:02.234Z,41.90
2022-10-14T08:23:01.106Z,39.70
2022-10-14T08:24:01.086Z,41.60
2022-10-14T08:25:02.007Z,40.10
2022-10-14T08:26:01.245Z,41.50
2022-10-14T08:27:01.067Z,39.10
2022-10-14T08:28:01.039Z,39.50
2022-10-14T08:29:01.030Z,38.70
2022-10-14T08:30:01.044Z,39.90
2022-10-14T08:31:01.023Z,36.40
2022-10-14T08:32:01.012Z,38.30
2022-10-14T08:33:00.986Z,36.80
2022-10-14T08:34:00.979Z,34.50
2022-10-14T08:35:00.962Z,35.90
2022-10-14T08:36:00.946Z,33.00
2022-10-14T08:37:00.955Z,33.70
2022-10-14T08:38:01.036Z,34.10
2022-10-14T08:39:01.238Z,33.60
2022-10-14T08:40:01.274Z,32.50
2022-10-14T08:41:01.200Z,33.10
2022-10-14T08:42:01.080Z,30.40
2022-10-14T08:43:01.047Z,32.50
2022-10-14T08:44:00.877Z,27.50
2022-10-14T08:45:00.864Z,27.00
2022-10-14T08:46:01.153Z,27.50
2022-10-14T08:47:00.860Z,26.40
2022-10-14T08:48:00.810Z,28.20
2022-10-14T08:49:00.866Z,26.40
2022-10-14T08:50:00.792Z,25.70
2022-10-14T08:51:00.785Z,25.40
2022-10-14T08:52:00.801Z,23.30
2022-10-14T08:53:00.766Z,22.60
2022-10-14T08:54:00.781Z,21.80
2022-10-14T08:55:00.743Z,19.80
2022-10-14T08:56:00.725Z,19.00
2022-10-14T08:57:00.777Z,19.80
2022-10-14T08:58:00.764Z,19.60
2022-10-14T08:59:00.723Z,20.50
2022-10-14T09:00:00.690Z,18.90
2022-10-14T09:01:00.670Z,18.60
2022-10-14T09:02:00.682Z,19.80
2022-10-14T09:03:00.715Z,19.30
2022-10-14T09:04:00.696Z,18.40
2022-10-14T09:05:00.628Z,18.40
2022-10-14T09:06:00.622Z,18.80
2022-10-14T09:07:00.623Z,17.90
2022-10-14T09:08:00.604Z,17.50
2022-10-14T09:09:00.568Z,16.20
2022-10-14T09:10:00.567Z,17.60
2022-10-14T09:11:00.564Z,17.80
2022-10-14T09:12:00.572Z,16.20
2022-10-14T09:13:00.532Z,16.90
2022-10-14T09:14:00.534Z,17.10
2022-10-14T09:15:00.520Z,16.20
2022-10-14T09:16:00.523Z,16.50
2022-10-14T09:17:00.552Z,16.00
2022-10-14T09:18:00.529Z,16.60
2022-10-14T09:19:00.476Z,16.20
2022-10-14T09:20:00.483Z,14.50
2022-10-14T09:21:00.459Z,15.50
2022-10-14T09:22:00.473Z,14.80
2022-10-14T09:23:00.417Z,15.60
2022-10-14T09:24:00.416Z,15.10
2022-10-14T09:25:00.400Z,14.70
2022-10-14T09:26:00.408Z,14.20
2022-10-14T09:27:00.395Z,14.20
2022-10-14T09:28:00.384Z,13.40
2022-10-14T09:29:00.490Z,13.10
2022-10-14T09:30:00.339Z,12.70
2022-10-14T09:31:00.356Z,12.60
2022-10-14T09:32:00.338Z,13.00
2022-10-14T09:33:00.300Z,12.70
2022-10-14T09:34:00.349Z,12.30
2022-10-14T09:35:00.284Z,11.70
2022-10-14T09:36:00.471Z,11.40
2022-10-14T09:37:00.319Z,11.60
2022-10-14T09:38:00.263Z,11.60
2022-10-14T09:39:03.834Z,11.20
2022-10-14T09:40:00.248Z,10.90
2022-10-14T09:41:00.218Z,10.70
2022-10-14T09:42:00.237Z,10.80
2022-10-14T09:43:00.213Z,10.30
2022-10-14T09:44:00.189Z,10.80
2022-10-14T09:45:00.252Z,10.70
2022-10-14T09:46:00.189Z,10.60
2022-10-14T09:47:00.170Z,10.00
2022-10-14T09:48:00.152Z,9.60
2022-10-14T09:49:00.175Z,9.50
2022-10-14T09:50:00.124Z,9.30
2022-10-14T09:51:00.134Z,8.90
2022-10-14T09:52:00.120Z,9.00
2022-10-14T09:53:00.098Z,9.50
2022-10-14T09:54:00.183Z,8.50
2022-10-14T09:55:00.089Z,8.60
2022-10-14T09:56:00.048Z,8.40
2022-10-14T09:57:00.073Z,9.10
2022-10-14T09:58:00.032Z,8.30
2022-10-14T09:59:00.037Z,8.30
2022-10-14T10:00:00.008Z,8.00
2022-10-14T10:01:00.004Z,8.00
2022-10-14T10:01:59.995Z,7.30
2022-10-14T10:02:59.981Z,7.70
2022-10-14T10:04:00.043Z,7.20
2022-10-14T10:04:59.954Z,7.70
2022-10-14T10:05:59.957Z,7.80
2022-10-14T10:06:59.974Z,7.40
2022-10-14T10:07:59.922Z,7.20
2022-10-14T10:08:59.921Z,7.40
2022-10-14T10:09:59.902Z,7.30
2022-10-14T10:11:03.673Z,7.10
2022-10-14T10:11:59.895Z,7.40
2022-10-14T10:12:59.867Z,7.20
2022-10-14T10:13:59.872Z,6.80
2022-10-14T10:14:59.857Z,6.40
2022-10-14T10:15:59.826Z,6.80
2022-10-14T10:16:59.840Z,6.20
2022-10-14T10:17:59.817Z,6.70
2022-10-14T10:18:59.795Z,6.40
2022-10-14T10:19:59.800Z,6.20
2022-10-14T10:20:59.774Z,6.70
2022-10-14T10:21:59.806Z,7.10
2022-10-14T10:22:59.774Z,6.70
2022-10-14T10:23:59.732Z,6.90
2022-10-14T10:24:59.761Z,6.50
2022-10-14T10:25:59.733Z,6.60
2022-10-14T10:26:59.749Z,6.70
2022-10-14T10:27:59.700Z,6.60
2022-10-14T10:28:59.791Z,7.10
2022-10-14T10:29:59.694Z,6.80
2022-10-14T10:30:59.697Z,6.80
2022-10-14T10:31:59.684Z,6.70
2022-10-14T10:32:59.645Z,6.70
2022-10-14T10:33:59.640Z,6.50
2022-10-14T10:34:59.643Z,7.40
2022-10-14T10:35:59.607Z,7.30
2022-10-14T10:36:59.633Z,7.00
2022-10-14T10:37:59.601Z,7.20
2022-10-14T10:38:59.590Z,7.50
2022-10-14T10:39:59.565Z,7.60
2022-10-14T10:40:59.560Z,7.20
2022-10-14T10:41:59.572Z,7.50
2022-10-14T10:42:59.541Z,7.40
2022-10-14T10:43:59.535Z,7.20
2022-10-14T10:44:59.535Z,7.50
2022-10-14T10:45:59.506Z,7.70
2022-10-14T10:46:59.546Z,8.20
2022-10-14T10:47:59.488Z,8.00
2022-10-14T10:48:59.471Z,8.00
2022-10-14T10:49:59.468Z,8.30
2022-10-14T10:50:59.475Z,7.50
2022-10-14T10:51:59.457Z,8.50
2022-10-14T10:52:59.431Z,8.20
2022-10-14T10:53:59.404Z,8.30
2022-10-14T10:54:59.395Z,8.90
2022-10-14T10:55:59.382Z,8.70
2022-10-14T10:56:59.404Z,8.50
2022-10-14T10:57:59.367Z,9.00
2022-10-14T10:58:59.364Z,8.80
2022-10-14T10:59:59.343Z,9.50
2022-10-14T11:00:59.349Z,9.20
2022-10-14T11:01:59.345Z,9.20
2022-10-14T11:02:59.318Z,8.50
2022-10-14T11:03:59.299Z,8.80
2022-10-14T11:04:59.485Z,9.40
2022-10-14T11:05:59.278Z,9.00
2022-10-14T11:06:59.293Z,9.50
2022-10-14T11:07:59.265Z,9.10
2022-10-14T11:08:59.254Z,9.30
2022-10-14T11:09:59.225Z,9.60
2022-10-14T11:10:59.226Z,8.90
2022-10-14T11:11:59.258Z,9.50
2022-10-14T11:12:59.234Z,9.60
2022-10-14T11:13:59.200Z,9.90
2022-10-14T11:14:59.174Z,9.60
2022-10-14T11:15:59.172Z,10.00
2022-10-14T11:16:59.179Z,10.20
2022-10-14T11:17:59.149Z,10.00
2022-10-14T11:18:59.163Z,9.00
2022-10-14T11:19:59.150Z,9.80
2022-10-14T11:20:59.126Z,9.70
2022-10-14T11:21:59.134Z,9.30
2022-10-14T11:22:59.125Z,9.30
2022-10-14T11:23:59.086Z,9.30
2022-10-14T11:24:59.081Z,9.00
2022-10-14T11:25:59.066Z,8.60
2022-10-14T11:26:59.076Z,9.10
2022-10-14T11:27:59.032Z,8.80
2022-10-14T11:28:59.110Z,8.70
2022-10-14T11:29:59.024Z,8.20
2022-10-14T11:30:59.026Z,8.60
2022-10-14T11:31:59.041Z,8.50
2022-10-14T11:32:58.992Z,8.70
2022-10-14T11:33:59.031Z,7.30
2022-10-14T11:34:58.978Z,7.60
2022-10-14T11:35:58.981Z,8.10
2022-10-14T11:36:58.975Z,7.30
2022-10-14T11:37:58.931Z,7.60
2022-10-14T11:38:59.078Z,7.60
2022-10-14T11:39:58.901Z,7.60
2022-10-14T11:40:58.927Z,8.10
2022-10-14T11:41:58.907Z,8.60
2022-10-14T11:42:58.878Z,8.00
2022-10-14T11:43:58.864Z,7.80
2022-10-14T11:44:58.863Z,8.00
2022-10-14T11:45:58.851Z,7.80
2022-10-14T11:46:58.875Z,8.20
2022-10-14T11:47:58.823Z,8.20
2022-10-14T11:48:58.812Z,8.20
2022-10-14T11:49:58.803Z,7.70
2022-10-14T11:50:58.778Z,8.10
2022-10-14T11:51:58.797Z,8.70
2022-10-14T11:52:58.762Z,8.10
2022-10-14T11:53:58.761Z,8.30
2022-10-14T11:54:58.740Z,8.10
2022-10-14T11:55:58.744Z,8.30
2022-10-14T11:56:58.733Z,7.30
2022-10-14T11:57:58.706Z,8.40
2022-10-14T11:58:58.702Z,8.80
2022-10-14T11:59:58.684Z,8.30
2022-10-14T12:00:58.674Z,7.30
2022-10-14T12:01:58.692Z,7.90
2022-10-14T12:02:58.718Z,7.90
2022-10-14T12:03:58.646Z,7.40
2022-10-14T12:04:58.642Z,7.50
2022-10-14T12:05:58.617Z,7.70
2022-10-14T12:06:58.627Z,7.50
2022-10-14T12:07:58.600Z,7.70
2022-10-14T12:08:58.586Z,6.70
2022-10-14T12:09:59.960Z,6.60
2022-10-14T12:10:58.569Z,7.30
2022-10-14T12:11:58.570Z,6.80
2022-10-14T12:12:58.548Z,7.10
2022-10-14T12:13:58.536Z,7.00
2022-10-14T12:14:58.526Z,6.80
2022-10-14T12:15:58.541Z,7.10
2022-10-14T12:16:58.512Z,6.50
2022-10-14T12:17:58.491Z,6.60
2022-10-14T12:18:58.476Z,6.50
2022-10-14T12:19:58.471Z,5.90
2022-10-14T12:20:58.450Z,6.00
2022-10-14T12:21:58.461Z,5.70
2022-10-14T12:22:58.427Z,5.40
2022-10-14T12:23:58.425Z,4.60
2022-10-14T12:24:58.411Z,4.70
2022-10-14T12:25:58.397Z,4.20
2022-10-14T12:26:58.415Z,4.20
2022-10-14T12:27:58.394Z,4.10
2022-10-14T12:29:00.074Z,4.20
2022-10-14T12:29:58.385Z,4.00
2022-10-14T12:30:58.345Z,4.10
2022-10-14T12:31:58.388Z,4.10
2022-10-14T12:32:58.321Z,4.20
2022-10-14T12:33:58.316Z,4.00
2022-10-14T12:34:58.302Z,4.00
2022-10-14T12:35:58.300Z,4.20
2022-10-14T12:36:58.304Z,3.90
2022-10-14T12:38:58.250Z,3.90
2022-10-14T12:39:58.250Z,3.60
2022-10-14T12:40:58.236Z,3.80
2022-10-14T12:41:58.511Z,3.40
2022-10-14T12:42:58.216Z,3.90
2022-10-14T12:43:58.195Z,3.50
2022-10-14T12:44:58.182Z,3.60
2022-10-14T12:45:58.192Z,3.20
2022-10-14T12:46:58.177Z,3.60
2022-10-14T12:47:58.180Z,3.40
2022-10-14T12:48:58.140Z,3.20
2022-10-14T12:49:58.128Z,3.20
2022-10-14T12:50:58.121Z,3.20
2022-10-14T12:51:58.116Z,2.70
2022-10-14T12:52:58.121Z,3.10
2022-10-14T12:53:58.106Z,2.70
2022-10-14T12:54:58.085Z,3.00
2022-10-14T12:55:58.191Z,2.50
2022-10-14T12:56:58.054Z,2.70
2022-10-14T12:57:58.073Z,2.60
2022-10-14T12:58:58.037Z,2.50
2022-10-14T12:59:58.028Z,2.40